Terminal Aerodrome Forecast
Issued by NWS Pendleton, OR

Home | Current Version | Previous Version | Text Only | Print | Product List | Glossary On
Versions: 1 2 3 4 5 6 7 8 9 10 11 12 13 14 15 16 17 18 19 20 21 22 23 24 25 26 27 28 29 30 31
974
FTUS46 KPDT 162335
TAFPDT
TAF
KPDT 162335Z 1700/1724 VRB04KT 6SM HZ BR FEW020 SCT090
      TEMPO 1700/1703 6SM BR BKN020
     FM170300 29005KT 4SM BR OVC012
     FM171200 VRB05KT 5SM -SGPL BR OVC015
     FM171800 23007KT 6SM -FZRAPL BR SCT025 BKN050=

USA.gov is the U.S. government's official web portal to all federal, state and local government web resources and services.